Alda, NE (68810)

5:58 AM CDT on September 04, 2015 (GMT -0500)
Riverside/Barr | | Change Station
CLOSE
Current Station
Personal Weather Station
Location: Grand Island, NE
Elevation: 1856 ft
Nearby Weather Stations

Elev 1856 ft 40.90 °N, 98.35 °W | Updated 9 seconds ago

Mostly Cloudy
Mostly Cloudy
70.6 °F
Feels Like 70.6 °F
N
0.0
Wind Variable Wind from SE
Gusts 0.0 mph

Today
High -- | Low -- °F
--% Chance of Precip.
Yesterday
High -- | Low -- °F
Precip. -- in
7:03 AM 8:01 PM
Waning Gibbous, 60% visible
Pressure 29.80 in
Visibility 10.0 miles
Clouds Mostly Cloudy 12000 ft
Dew Point 66 °F
Humidity 86%
Rainfall 0.23 in
Snow Depth Not available.
UV 0.0 out of 12
Pollen 11.60 out of 12
Air Quality Not available.
Flu Activity Not available.
METAR KGRI 041053Z AUTO 14008KT 10SM BKN120 23/18 A2984 RMK AO2 LTG DSNT NE TSB00E15 SLP089 T02280183
Pressure 29.80 in
Visibility 10.0 miles
Clouds Mostly Cloudy 12000 ft
Dew Point 66 °F
Humidity 86%
Rainfall 0.23 in
Snow Depth Not available.
UV 0.0 out of 12
Pollen 11.60 out of 12
Air Quality Not available.
Flu Activity Not available.
METAR KGRI 041053Z AUTO 14008KT 10SM BKN120 23/18 A2984 RMK AO2 LTG DSNT NE TSB00E15 SLP089 T02280183

10-Day Weather Forecast

×

Almanac

Astronomy

Sep. 04, 2015 Rise Set
Actual Time
Civil Twilight
Nautical Twilight
Astronomical Twilight
Moon
Length of Visible Light
Length of Day
Tomorrow will be .
, % of the Moon is Illuminated

Today's Extremes

State Highs State Lows

Community

WunderPhotos

Upload Photos

1,852,146 photos uploaded!

WunderBlogs® & News

Nearby

Air Quality

  Air Quality AQ Index Pollutant
Not available.

Snow Depth

Station Depth Elevation

Earthquake Activity

City Distance Mag. Time & Date
Minimum magnitude displayed is 2.5.

Coastal Water Temperatures

Place Temperature

Stations

Nearby Weather Stations

Station Location Temp. Windchill Dew Point Humidity Wind Precip. Elev Updated Type